Time;durP1;ratioP1;P1;durP2;ratioP2;P2;SDS_P1;SDS_P2;PMS_P1;PMS_P2;Temp;Humidity;BMP_temperature;BMP_pressure;BME280_temperature;BME280_humidity;BME280_pressure;Samples;Min_cycle;Max_cycle;Signal;HPM_P1;HPM_P2
2023/05/24 00:00:27;;;;;;;10.37;3.17;;;11.10;99.90;;;;;;5034827;28;20350;-64
2023/05/24 00:02:53;;;;;;;5.80;2.40;;;11.00;99.90;;;;;;5034537;28;20269;-64
2023/05/24 00:05:19;;;;;;;9.97;3.17;;;11.10;99.90;;;;;;5033928;28;20561;-64
2023/05/24 00:07:44;;;;;;;7.60;3.10;;;11.10;99.90;;;;;;5036149;28;20266;-64
2023/05/24 00:10:10;;;;;;;6.20;2.70;;;11.10;99.90;;;;;;5034079;28;20201;-65
2023/05/24 00:12:36;;;;;;;6.00;2.53;;;11.00;99.90;;;;;;5034613;28;20196;-64
2023/05/24 00:15:02;;;;;;;10.40;2.47;;;11.00;99.90;;;;;;5034674;28;20195;-64
2023/05/24 00:17:29;;;;;;;9.23;2.87;;;11.00;99.90;;;;;;5035607;28;20282;-64
2023/05/24 00:19:54;;;;;;;5.17;2.17;;;11.00;99.90;;;;;;5035912;28;20274;-64
2023/05/24 00:22:20;;;;;;;6.60;2.47;;;11.00;99.90;;;;;;5034821;28;20693;-66
2023/05/24 00:24:46;;;;;;;5.23;2.73;;;11.10;99.90;;;;;;5021790;28;20193;-63
2023/05/24 00:27:13;;;;;;;7.70;2.83;;;11.00;99.90;;;;;;5036666;28;20205;-63
2023/05/24 00:29:39;;;;;;;10.43;3.60;;;11.00;99.90;;;;;;5037107;28;20285;-63
2023/05/24 00:32:04;;;;;;;11.30;3.03;;;11.00;99.90;;;;;;5039324;28;20279;-67
2023/05/24 00:34:30;;;;;;;9.97;2.53;;;11.00;99.90;;;;;;5032512;28;20576;-64
2023/05/24 00:36:56;;;;;;;11.37;3.10;;;10.90;99.90;;;;;;5034438;28;20219;-64
2023/05/24 00:39:22;;;;;;;8.33;3.33;;;11.00;99.90;;;;;;5029835;28;20272;-63
2023/05/24 00:41:47;;;;;;;13.73;3.07;;;11.00;99.90;;;;;;5026752;28;20216;-64
2023/05/24 00:44:13;;;;;;;9.30;2.73;;;11.10;99.90;;;;;;5029331;28;20201;-64
2023/05/24 00:46:39;;;;;;;7.33;2.47;;;11.10;99.90;;;;;;5033107;28;20208;-64
2023/05/24 00:49:04;;;;;;;9.23;2.77;;;11.00;99.90;;;;;;5022260;28;20190;-64
2023/05/24 00:51:32;;;;;;;9.33;3.37;;;11.10;99.90;;;;;;5029872;28;20210;-63
2023/05/24 00:53:58;;;;;;;7.07;2.67;;;11.00;99.90;;;;;;5029664;28;20439;-65
2023/05/24 00:56:25;;;;;;;6.67;2.53;;;11.10;99.90;;;;;;5028050;28;20205;-64
2023/05/24 00:58:54;;;;;;;7.87;2.83;;;11.10;99.90;;;;;;5028601;28;20206;-64
2023/05/24 01:01:24;;;;;;;11.43;2.57;;;11.10;99.90;;;;;;5028825;28;20281;-64
2023/05/24 01:03:51;;;;;;;8.90;2.70;;;11.00;99.90;;;;;;5028577;28;20782;-64
2023/05/24 01:06:17;;;;;;;11.70;3.03;;;11.00;99.90;;;;;;5028710;28;20202;-64
2023/05/24 01:09:24;;;;;;;7.93;2.90;;;11.10;99.90;;;;;;5031606;28;20205;-64
2023/05/24 01:12:02;;;;;;;9.07;2.97;;;11.20;99.90;;;;;;5029027;28;20267;-64
2023/05/24 01:14:51;;;;;;;5.70;2.63;;;11.20;99.90;;;;;;5037354;28;20197;-64
2023/05/24 01:17:25;;;;;;;5.23;2.17;;;11.20;99.90;;;;;;5031395;28;20233;-65
2023/05/24 01:19:55;;;;;;;6.63;2.73;;;11.20;99.90;;;;;;5029801;28;20208;-64
2023/05/24 01:22:39;;;;;;;7.30;2.33;;;11.20;99.90;;;;;;5028122;28;20917;-64
2023/05/24 01:25:42;;;;;;;13.30;2.80;;;11.10;99.90;;;;;;5028665;28;20226;-63
2023/05/24 01:28:11;;;;;;;8.93;3.23;;;11.20;99.90;;;;;;5026148;28;20209;-65
2023/05/24 01:30:38;;;;;;;8.17;3.33;;;11.20;99.90;;;;;;5032222;28;20287;-64
2023/05/24 01:33:04;;;;;;;9.87;3.27;;;11.20;99.90;;;;;;5027829;28;20208;-64
2023/05/24 01:35:29;;;;;;;4.93;2.23;;;11.20;99.90;;;;;;5026397;28;20188;-64
2023/05/24 01:37:55;;;;;;;8.60;3.53;;;11.20;99.90;;;;;;5027124;28;20241;-64
2023/05/24 01:40:21;;;;;;;12.07;2.77;;;11.10;99.90;;;;;;5026222;28;20213;-64
2023/05/24 01:43:03;;;;;;;9.40;3.17;;;11.10;99.90;;;;;;5027779;28;20259;-64
2023/05/24 01:45:39;;;;;;;10.03;3.83;;;11.10;99.90;;;;;;5027923;28;20744;-64
2023/05/24 01:48:34;;;;;;;8.07;2.90;;;11.10;99.90;;;;;;5021338;28;20200;-64
2023/05/24 01:51:03;;;;;;;7.23;2.93;;;11.10;99.90;;;;;;5003961;28;20218;-64
2023/05/24 01:53:32;;;;;;;11.10;3.07;;;11.10;99.90;;;;;;5027968;28;20188;-64
2023/05/24 01:56:01;;;;;;;6.00;2.53;;;11.10;99.90;;;;;;5027836;28;20257;-64
2023/05/24 01:58:29;;;;;;;7.93;2.63;;;11.10;99.90;;;;;;5017632;28;20200;-65
2023/05/24 02:00:56;;;;;;;5.33;2.60;;;11.10;99.90;;;;;;5028327;28;20575;-64
2023/05/24 02:03:21;;;;;;;8.90;3.23;;;11.10;99.90;;;;;;5032900;28;20247;-65
2023/05/24 02:05:47;;;;;;;13.80;4.10;;;11.00;99.90;;;;;;5035666;28;20657;-64
2023/05/24 02:08:12;;;;;;;9.70;2.10;;;11.00;99.90;;;;;;5037321;28;20703;-64
2023/05/24 02:10:39;;;;;;;9.93;2.50;;;11.00;99.90;;;;;;5032960;28;20198;-65
2023/05/24 02:13:06;;;;;;;8.47;2.80;;;11.10;99.90;;;;;;5032428;28;20662;-65
2023/05/24 02:15:32;;;;;;;12.77;3.17;;;11.00;99.90;;;;;;5037155;28;20212;-65
2023/05/24 02:17:57;;;;;;;10.80;3.20;;;11.00;99.90;;;;;;5032648;28;20207;-65
2023/05/24 02:20:23;;;;;;;7.40;2.07;;;11.00;99.90;;;;;;5029161;28;20563;-64
2023/05/24 02:22:49;;;;;;;9.50;2.93;;;11.00;99.90;;;;;;5036610;28;20247;-64
2023/05/24 02:25:15;;;;;;;10.10;3.60;;;11.00;99.90;;;;;;5029780;28;20758;-69
2023/05/24 02:27:40;;;;;;;13.80;3.40;;;11.10;99.90;;;;;;5025355;28;20196;-64
2023/05/24 02:30:07;;;;;;;8.67;3.83;;;11.00;99.90;;;;;;5025911;28;20195;-65
2023/05/24 02:32:33;;;;;;;8.07;2.93;;;11.00;99.90;;;;;;5025330;28;20224;-64
2023/05/24 02:35:00;;;;;;;7.53;2.80;;;11.00;99.90;;;;;;5033250;28;20210;-64
2023/05/24 02:37:26;;;;;;;8.10;3.23;;;11.00;99.90;;;;;;5036557;28;20233;-64
2023/05/24 02:39:52;;;;;;;5.90;2.83;;;11.00;99.90;;;;;;5032300;28;20826;-63
2023/05/24 02:42:17;;;;;;;9.00;2.87;;;10.90;99.90;;;;;;5032138;28;20427;-63
2023/05/24 02:44:46;;;;;;;10.50;2.93;;;10.90;99.90;;;;;;5034182;28;20264;-64
2023/05/24 02:47:12;;;;;;;8.37;2.77;;;11.00;99.90;;;;;;5030683;28;20248;-63
2023/05/24 02:49:37;;;;;;;9.20;2.73;;;11.00;99.90;;;;;;5036700;28;20208;-63
2023/05/24 02:52:04;;;;;;;7.63;2.83;;;10.90;99.90;;;;;;5036975;28;20840;-64
2023/05/24 02:54:29;;;;;;;16.53;3.23;;;10.90;99.90;;;;;;5031433;28;20206;-64
2023/05/24 02:56:55;;;;;;;5.90;3.23;;;10.80;99.90;;;;;;5034602;28;20204;-64
2023/05/24 02:59:21;;;;;;;6.73;2.73;;;10.80;99.90;;;;;;5036744;28;20204;-64
2023/05/24 03:01:47;;;;;;;6.40;2.43;;;10.70;99.90;;;;;;5036921;28;20217;-64
2023/05/24 03:04:12;;;;;;;7.80;3.00;;;10.70;99.90;;;;;;5036979;28;20197;-63
2023/05/24 03:06:38;;;;;;;9.80;3.60;;;10.70;99.90;;;;;;5036656;28;20683;-63
2023/05/24 03:09:04;;;;;;;9.50;2.97;;;10.80;99.90;;;;;;5037007;28;20294;-63
2023/05/24 03:11:29;;;;;;;8.10;2.87;;;10.80;99.90;;;;;;5035500;28;20259;-63
2023/05/24 03:13:55;;;;;;;15.07;3.93;;;10.70;99.90;;;;;;5032197;28;20662;-63
2023/05/24 03:16:20;;;;;;;13.80;4.10;;;10.70;99.90;;;;;;5036450;28;20208;-63
2023/05/24 03:18:46;;;;;;;11.43;4.27;;;10.70;99.90;;;;;;5036424;28;20292;-64
2023/05/24 03:21:11;;;;;;;9.87;3.70;;;10.70;99.90;;;;;;5034614;28;20221;-64
2023/05/24 03:23:37;;;;;;;9.70;2.93;;;10.70;99.90;;;;;;5030573;28;20695;-63
2023/05/24 03:26:03;;;;;;;11.20;3.53;;;10.70;99.90;;;;;;5036021;28;20222;-64
2023/05/24 03:28:28;;;;;;;11.13;3.90;;;10.70;99.90;;;;;;5032201;28;20202;-63
2023/05/24 03:30:54;;;;;;;11.77;3.43;;;10.70;99.90;;;;;;5036462;28;20223;-63
2023/05/24 03:33:20;;;;;;;11.60;3.60;;;10.60;99.90;;;;;;5034572;28;20679;-64
2023/05/24 03:35:45;;;;;;;7.73;3.23;;;10.60;99.90;;;;;;5029380;28;20200;-64
2023/05/24 03:38:11;;;;;;;11.27;3.50;;;10.70;99.90;;;;;;5032067;28;20692;-64
2023/05/24 03:40:37;;;;;;;8.67;2.97;;;10.70;99.90;;;;;;5034253;28;20350;-64
2023/05/24 03:43:02;;;;;;;9.23;3.43;;;10.70;99.90;;;;;;5033657;28;20214;-64
2023/05/24 03:45:28;;;;;;;12.70;4.00;;;10.70;99.90;;;;;;5036268;28;20661;-63
2023/05/24 03:47:53;;;;;;;10.97;3.50;;;10.80;99.90;;;;;;5035038;28;20281;-64
2023/05/24 03:50:19;;;;;;;11.53;3.30;;;10.80;99.90;;;;;;5029553;28;20209;-65
2023/05/24 03:52:46;;;;;;;11.23;3.63;;;10.80;99.90;;;;;;5036103;28;20198;-65
2023/05/24 03:55:13;;;;;;;7.13;3.03;;;10.80;99.90;;;;;;5036472;28;20199;-66
2023/05/24 03:57:40;;;;;;;8.63;3.60;;;10.80;99.90;;;;;;5036224;28;20198;-65
2023/05/24 04:00:07;;;;;;;13.03;3.27;;;10.80;99.90;;;;;;5035368;28;20211;-64
2023/05/24 04:02:32;;;;;;;8.17;2.67;;;10.80;99.90;;;;;;5038876;28;20315;-64
2023/05/24 04:04:58;;;;;;;16.80;3.77;;;10.80;99.90;;;;;;5040149;28;20665;-64
2023/05/24 04:07:23;;;;;;;8.40;3.97;;;10.90;99.90;;;;;;5039988;28;20600;-64
2023/05/24 04:09:49;;;;;;;12.80;3.80;;;11.00;99.90;;;;;;5036593;28;20196;-64
2023/05/24 04:12:14;;;;;;;9.27;3.50;;;11.00;99.90;;;;;;5038419;28;20574;-64
2023/05/24 04:14:40;;;;;;;10.97;3.33;;;11.00;99.90;;;;;;5039240;28;20275;-64
2023/05/24 04:17:06;;;;;;;8.10;3.77;;;11.00;99.90;;;;;;5039337;28;20234;-64
2023/05/24 04:19:32;;;;;;;17.60;4.03;;;11.00;99.90;;;;;;5039339;28;20199;-63
2023/05/24 04:21:57;;;;;;;9.97;3.93;;;11.20;99.90;;;;;;5035735;28;20545;-63
2023/05/24 04:24:23;;;;;;;14.80;3.97;;;11.30;99.90;;;;;;5034600;28;20228;-63
2023/05/24 04:26:49;;;;;;;11.10;2.90;;;11.20;99.90;;;;;;5037506;28;20230;-64
2023/05/24 04:29:14;;;;;;;11.47;3.60;;;11.20;99.90;;;;;;5039606;28;20191;-64
2023/05/24 04:31:43;;;;;;;10.00;3.23;;;11.20;99.90;;;;;;5032707;28;20575;-64
2023/05/24 04:34:11;;;;;;;15.23;4.00;;;11.10;99.90;;;;;;5037388;28;20593;-64
2023/05/24 04:36:37;;;;;;;9.97;3.57;;;11.00;99.90;;;;;;5039222;28;20702;-64
2023/05/24 04:39:03;;;;;;;7.97;3.17;;;11.00;99.90;;;;;;5037369;28;20195;-64
2023/05/24 04:41:34;;;;;;;11.40;3.70;;;11.00;99.90;;;;;;5038496;28;20210;-64
2023/05/24 04:44:00;;;;;;;14.73;3.53;;;10.90;99.90;;;;;;5034494;28;20562;-64
2023/05/24 04:46:26;;;;;;;19.13;3.97;;;10.80;99.90;;;;;;5034571;28;20208;-64
2023/05/24 04:48:52;;;;;;;9.97;4.00;;;10.80;99.90;;;;;;5032290;28;20206;-63
2023/05/24 04:51:18;;;;;;;8.67;4.13;;;10.80;99.90;;;;;;5039109;28;20860;-64
2023/05/24 04:53:43;;;;;;;12.37;5.10;;;10.80;99.90;;;;;;5039039;28;20208;-64
2023/05/24 04:56:09;;;;;;;11.23;4.33;;;10.80;99.90;;;;;;5038805;28;20208;-64
2023/05/24 04:58:34;;;;;;;13.40;4.37;;;10.80;99.90;;;;;;5039043;28;20440;-65
2023/05/24 05:01:01;;;;;;;16.10;4.87;;;10.80;99.90;;;;;;5036994;28;20208;-64
2023/05/24 05:03:27;;;;;;;16.83;4.93;;;10.70;99.90;;;;;;5036386;28;20931;-64
2023/05/24 05:05:52;;;;;;;18.07;5.43;;;10.70;99.90;;;;;;5027164;28;20200;-64
2023/05/24 05:08:19;;;;;;;13.17;4.07;;;10.70;99.90;;;;;;5027855;28;20189;-65
2023/05/24 05:10:45;;;;;;;10.53;4.30;;;10.80;99.90;;;;;;5028426;28;20259;-63
2023/05/24 05:13:10;;;;;;;18.47;5.20;;;10.80;99.90;;;;;;5026522;28;20216;-64
2023/05/24 05:15:36;;;;;;;12.83;4.43;;;10.80;99.90;;;;;;5029168;28;20204;-65
2023/05/24 05:18:01;;;;;;;15.97;4.20;;;10.80;99.90;;;;;;5030855;28;20817;-63
2023/05/24 05:20:27;;;;;;;10.90;5.00;;;10.90;99.90;;;;;;5027208;28;20221;-63
2023/05/24 05:22:52;;;;;;;12.53;4.87;;;10.90;99.90;;;;;;5027897;28;20207;-65
2023/05/24 05:25:18;;;;;;;15.03;4.90;;;10.90;99.90;;;;;;5026549;28;20262;-65
2023/05/24 05:27:44;;;;;;;15.33;4.87;;;10.90;99.90;;;;;;5028252;28;20198;-62
2023/05/24 05:30:10;;;;;;;13.23;4.67;;;10.80;99.90;;;;;;5028292;28;20683;-63
2023/05/24 05:32:36;;;;;;;20.10;5.73;;;10.90;99.90;;;;;;5027758;28;20264;-63
2023/05/24 05:35:02;;;;;;;15.10;4.43;;;11.00;99.90;;;;;;5028090;28;20216;-63
2023/05/24 05:37:28;;;;;;;20.00;5.37;;;10.90;99.90;;;;;;5026587;28;20221;-65
2023/05/24 05:39:54;;;;;;;15.43;4.83;;;10.80;99.90;;;;;;5028593;28;20202;-63
2023/05/24 05:42:19;;;;;;;23.60;5.23;;;10.80;99.90;;;;;;5025660;28;20231;-64
2023/05/24 05:44:45;;;;;;;17.07;5.37;;;10.90;99.90;;;;;;5028049;28;20611;-64
2023/05/24 05:47:10;;;;;;;19.77;5.60;;;11.00;99.90;;;;;;5028553;28;20209;-64
2023/05/24 05:49:36;;;;;;;15.87;5.70;;;11.00;99.90;;;;;;5026138;28;20191;-64
2023/05/24 05:52:03;;;;;;;16.13;4.70;;;11.00;99.90;;;;;;5019130;28;20206;-64
2023/05/24 05:54:29;;;;;;;8.73;4.43;;;11.00;99.90;;;;;;5028288;28;20212;-64
2023/05/24 05:56:56;;;;;;;12.00;4.90;;;10.90;99.90;;;;;;5023683;28;20236;-63
2023/05/24 05:59:21;;;;;;;18.10;5.30;;;10.80;99.90;;;;;;5021136;28;20209;-63
2023/05/24 06:01:47;;;;;;;16.33;5.30;;;10.80;99.90;;;;;;5022831;28;20412;-64
2023/05/24 06:04:14;;;;;;;19.43;6.50;;;10.80;99.90;;;;;;5025374;28;20213;-65
2023/05/24 06:06:39;;;;;;;16.77;4.80;;;11.00;99.90;;;;;;5022357;28;20207;-64
2023/05/24 06:09:05;;;;;;;14.83;4.73;;;11.00;99.90;;;;;;5017915;28;20189;-64
2023/05/24 06:11:31;;;;;;;18.07;5.43;;;11.00;99.90;;;;;;5022043;28;20295;-65
2023/05/24 06:13:56;;;;;;;11.50;4.27;;;11.10;99.90;;;;;;5022673;28;20202;-67
2023/05/24 06:16:22;;;;;;;22.50;6.83;;;11.00;99.90;;;;;;5022316;28;20280;-67
2023/05/24 06:18:47;;;;;;;20.03;5.43;;;11.00;99.90;;;;;;5017684;28;20198;-68
2023/05/24 06:21:14;;;;;;;14.60;4.87;;;11.00;99.90;;;;;;5017604;28;20234;-65
2023/05/24 06:23:39;;;;;;;12.93;4.30;;;11.00;99.90;;;;;;5017025;28;20294;-64
2023/05/24 06:26:09;;;;;;;17.40;5.33;;;11.10;99.90;;;;;;5018193;28;20357;-64
2023/05/24 06:28:37;;;;;;;21.07;6.13;;;11.10;99.90;;;;;;5017329;28;20200;-65
2023/05/24 06:31:04;;;;;;;18.20;5.43;;;11.10;99.90;;;;;;5019319;28;20201;-64
2023/05/24 06:33:32;;;;;;;19.27;5.67;;;11.10;99.90;;;;;;5016110;28;20271;-64
2023/05/24 06:36:01;;;;;;;21.27;5.93;;;11.10;99.90;;;;;;5022819;28;20196;-74
2023/05/24 06:38:27;;;;;;;15.40;5.30;;;11.10;99.90;;;;;;5018325;28;20783;-78
2023/05/24 06:40:53;;;;;;;15.27;5.40;;;11.20;99.90;;;;;;5020239;28;20704;-69
2023/05/24 06:43:19;;;;;;;15.93;4.97;;;11.30;99.90;;;;;;5023594;28;20663;-73
2023/05/24 06:45:45;;;;;;;18.90;5.27;;;11.40;99.90;;;;;;5026094;28;20690;-69
2023/05/24 06:48:10;;;;;;;16.17;4.53;;;11.40;99.90;;;;;;5027045;28;20198;-71
2023/05/24 06:50:36;;;;;;;13.47;5.20;;;11.40;99.90;;;;;;5025579;28;20202;-71
2023/05/24 06:53:02;;;;;;;19.37;5.20;;;11.30;99.90;;;;;;5027703;28;20285;-72
2023/05/24 06:55:28;;;;;;;19.00;5.63;;;11.30;99.90;;;;;;5023263;28;20727;-72
2023/05/24 06:57:53;;;;;;;13.70;5.40;;;11.30;99.90;;;;;;5027679;28;20658;-73
2023/05/24 07:00:20;;;;;;;13.73;5.70;;;11.40;99.90;;;;;;5027069;28;20208;-72
2023/05/24 07:02:46;;;;;;;15.40;5.83;;;11.40;99.90;;;;;;5022705;28;20269;-72
2023/05/24 07:05:12;;;;;;;15.20;5.37;;;11.40;99.90;;;;;;5015150;28;20656;-72
2023/05/24 07:07:42;;;;;;;16.50;6.33;;;11.60;99.90;;;;;;5018798;28;20258;-74
2023/05/24 07:10:09;;;;;;;14.53;5.67;;;11.80;99.90;;;;;;5020847;28;20209;-73
2023/05/24 07:12:34;;;;;;;18.43;4.63;;;11.80;99.90;;;;;;5016855;28;20684;-71
2023/05/24 07:15:00;;;;;;;14.33;4.93;;;11.70;99.90;;;;;;5018771;28;20206;-72
2023/05/24 07:17:26;;;;;;;18.97;5.73;;;11.70;99.90;;;;;;5019061;28;20284;-72
2023/05/24 07:19:51;;;;;;;18.97;5.90;;;11.80;99.90;;;;;;5018509;28;20665;-71
2023/05/24 07:22:17;;;;;;;19.57;6.13;;;12.00;99.90;;;;;;5018778;28;20825;-72
2023/05/24 07:24:42;;;;;;;16.63;5.63;;;11.90;99.90;;;;;;5025179;28;20201;-73
2023/05/24 07:27:08;;;;;;;18.73;5.90;;;11.90;99.90;;;;;;5025697;28;20203;-71
2023/05/24 07:29:34;;;;;;;17.17;5.00;;;12.00;99.90;;;;;;5023524;28;20946;-71
2023/05/24 07:31:59;;;;;;;20.63;5.90;;;12.10;99.90;;;;;;5027568;28;20682;-71
2023/05/24 07:34:28;;;;;;;19.33;5.67;;;11.90;99.90;;;;;;5029389;28;21078;-71
2023/05/24 07:36:59;;;;;;;15.07;6.13;;;12.10;99.90;;;;;;5032929;28;20383;-71
2023/05/24 07:39:26;;;;;;;21.17;5.90;;;12.20;99.90;;;;;;5038935;28;20205;-71
2023/05/24 07:41:52;;;;;;;13.73;4.77;;;12.10;99.90;;;;;;5035145;28;20212;-73
2023/05/24 07:44:18;;;;;;;18.30;6.33;;;12.00;99.90;;;;;;5041593;28;20309;-71
2023/05/24 07:46:43;;;;;;;23.90;6.90;;;12.10;99.90;;;;;;5036948;28;20657;-71
2023/05/24 07:49:09;;;;;;;16.40;6.03;;;12.20;99.90;;;;;;5038984;28;20715;-69
2023/05/24 07:51:35;;;;;;;22.30;6.73;;;12.30;99.90;;;;;;5042925;28;20236;-72
2023/05/24 07:54:01;;;;;;;21.53;5.63;;;12.40;99.90;;;;;;5045364;28;20235;-74
2023/05/24 07:56:26;;;;;;;13.00;5.37;;;12.30;99.90;;;;;;5044216;28;20695;-73
2023/05/24 07:58:55;;;;;;;25.77;6.30;;;12.30;99.90;;;;;;5042070;28;20230;-73
2023/05/24 08:01:21;;;;;;;17.13;6.33;;;12.20;99.90;;;;;;5035637;28;20204;-71
2023/05/24 08:03:47;;;;;;;17.63;7.00;;;12.20;99.90;;;;;;5036421;28;20209;-71
2023/05/24 08:06:12;;;;;;;20.83;6.43;;;12.40;99.90;;;;;;5040184;28;20544;-73
2023/05/24 08:08:39;;;;;;;16.50;6.43;;;12.70;99.90;;;;;;5036892;28;20534;-73
2023/05/24 08:11:06;;;;;;;19.43;5.43;;;12.60;99.90;;;;;;5031572;28;20198;-73
2023/05/24 08:13:32;;;;;;;11.87;4.87;;;12.70;99.90;;;;;;5034668;28;20199;-71
2023/05/24 08:15:58;;;;;;;17.73;5.43;;;12.80;99.90;;;;;;5039838;28;20544;-71
2023/05/24 08:18:24;;;;;;;18.00;6.23;;;12.90;99.90;;;;;;5038623;28;20579;-71
2023/05/24 08:20:49;;;;;;;18.53;6.87;;;12.90;99.90;;;;;;5040334;28;20209;-72
2023/05/24 08:23:15;;;;;;;18.10;6.50;;;12.80;99.90;;;;;;5036138;28;20205;-71
2023/05/24 08:25:41;;;;;;;20.00;6.40;;;12.90;99.90;;;;;;5032313;28;20530;-72
2023/05/24 08:28:07;;;;;;;17.53;4.97;;;12.80;99.90;;;;;;5034315;28;20209;-74
2023/05/24 08:30:32;;;;;;;18.33;7.60;;;12.90;99.90;;;;;;5034486;28;20189;-72
2023/05/24 08:32:58;;;;;;;18.23;5.47;;;12.90;99.90;;;;;;5038386;28;20200;-75
2023/05/24 08:35:23;;;;;;;17.00;5.67;;;12.60;99.90;;;;;;5027881;28;20629;-74
2023/05/24 08:37:49;;;;;;;18.20;6.10;;;12.60;99.90;;;;;;5030231;28;20225;-76
2023/05/24 08:40:15;;;;;;;14.50;5.70;;;12.60;99.90;;;;;;5031147;28;20198;-74
2023/05/24 08:42:41;;;;;;;19.73;5.97;;;12.70;99.90;;;;;;5029368;28;20202;-72
2023/05/24 08:45:10;;;;;;;10.53;4.07;;;12.60;99.90;;;;;;5027881;28;20198;-70
2023/05/24 08:47:37;;;;;;;15.00;5.47;;;12.50;99.90;;;;;;5025408;28;20723;-70
2023/05/24 08:50:04;;;;;;;13.97;5.23;;;12.60;99.90;;;;;;5033210;28;20488;-69
2023/05/24 08:52:31;;;;;;;12.17;4.37;;;12.70;99.90;;;;;;5026337;28;20215;-71
2023/05/24 08:55:00;;;;;;;15.10;5.57;;;12.70;99.90;;;;;;5021179;28;20292;-71
2023/05/24 08:57:27;;;;;;;10.70;4.13;;;12.70;99.90;;;;;;5034069;28;20202;-73
2023/05/24 08:59:56;;;;;;;11.77;3.47;;;12.80;99.90;;;;;;5028733;28;20742;-75
2023/05/24 09:02:22;;;;;;;15.20;5.33;;;12.70;99.90;;;;;;5030791;28;20214;-71
2023/05/24 09:04:49;;;;;;;13.07;4.43;;;12.60;99.90;;;;;;5026201;28;20198;-71
2023/05/24 09:07:23;;;;;;;20.47;5.83;;;12.60;99.90;;;;;;5025598;28;20206;-71
2023/05/24 09:09:56;;;;;;;13.27;5.83;;;12.50;99.90;;;;;;5026896;28;20213;-71
2023/05/24 09:12:22;;;;;;;15.97;5.60;;;12.70;99.90;;;;;;5030297;28;20235;-71
2023/05/24 09:14:48;;;;;;;14.73;5.33;;;12.80;99.90;;;;;;5029398;28;20210;-71
2023/05/24 09:17:17;;;;;;;16.40;5.37;;;12.90;99.90;;;;;;5030883;28;20206;-70
2023/05/24 09:19:45;;;;;;;16.17;6.00;;;12.90;99.90;;;;;;5028801;28;20201;-71
2023/05/24 09:22:13;;;;;;;15.30;5.50;;;13.00;99.90;;;;;;5026474;28;20350;-70
2023/05/24 09:24:42;;;;;;;15.60;5.90;;;13.00;99.90;;;;;;5028066;28;20206;-71
2023/05/24 09:27:08;;;;;;;13.93;5.23;;;12.90;99.90;;;;;;5028933;28;20294;-74
2023/05/24 09:29:37;;;;;;;13.27;4.50;;;12.70;99.90;;;;;;5028059;28;20811;-71
2023/05/24 09:32:06;;;;;;;13.03;4.10;;;13.00;99.90;;;;;;5019677;28;20629;-70
2023/05/24 09:34:41;;;;;;;19.57;4.90;;;13.00;99.90;;;;;;5032705;28;20209;-70
2023/05/24 09:37:15;;;;;;;12.77;5.03;;;13.20;99.90;;;;;;5028827;28;20790;-70
2023/05/24 09:39:46;;;;;;;10.90;4.13;;;13.10;99.90;;;;;;5030570;28;20221;-71
2023/05/24 09:42:17;;;;;;;17.73;6.37;;;13.00;99.90;;;;;;5031049;28;20231;-70
2023/05/24 09:44:43;;;;;;;10.50;4.07;;;13.00;99.90;;;;;;5028893;28;20575;-71
2023/05/24 09:47:08;;;;;;;17.47;4.87;;;12.90;99.90;;;;;;5027455;28;20209;-69
2023/05/24 09:49:37;;;;;;;9.83;4.37;;;13.00;99.90;;;;;;5025421;28;20204;-69
2023/05/24 09:52:03;;;;;;;18.43;4.73;;;13.10;99.90;;;;;;5024360;28;20599;-70
2023/05/24 09:54:31;;;;;;;11.43;4.43;;;13.00;99.90;;;;;;5028112;28;20621;-70
2023/05/24 09:57:00;;;;;;;8.30;4.53;;;13.00;99.90;;;;;;5022861;28;20210;-70
2023/05/24 09:59:26;;;;;;;10.70;3.70;;;12.90;99.90;;;;;;5027362;28;20203;-73
2023/05/24 10:02:05;;;;;;;13.67;4.00;;;12.90;99.90;;;;;;5032874;28;20214;-74
2023/05/24 10:04:34;;;;;;;17.87;5.13;;;12.90;99.90;;;;;;5023887;28;20286;-70
2023/05/24 10:07:01;;;;;;;9.00;4.13;;;13.20;99.90;;;;;;5027336;28;20190;-69
2023/05/24 10:09:32;;;;;;;12.53;3.90;;;13.30;99.90;;;;;;5028940;28;20678;-69
2023/05/24 10:12:03;;;;;;;16.93;4.77;;;13.30;99.90;;;;;;5026980;28;20252;-70
2023/05/24 10:14:35;;;;;;;15.13;5.57;;;13.70;99.90;;;;;;5029314;28;20291;-69
2023/05/24 10:17:04;;;;;;;12.07;4.33;;;13.80;99.90;;;;;;5027103;28;20284;-69
2023/05/24 10:19:32;;;;;;;8.50;4.27;;;13.90;99.90;;;;;;5025323;28;20853;-70
2023/05/24 10:22:00;;;;;;;8.93;3.80;;;14.10;99.90;;;;;;5022791;28;20306;-69
2023/05/24 10:24:32;;;;;;;7.20;3.67;;;14.20;99.90;;;;;;5028752;28;20719;-69
2023/05/24 10:26:59;;;;;;;7.97;3.83;;;14.30;99.90;;;;;;5027295;28;20341;-70
2023/05/24 10:29:45;;;;;;;9.00;3.97;;;14.20;99.90;;;;;;5030101;28;20194;-70
2023/05/24 10:32:12;;;;;;;9.80;3.90;;;14.40;99.90;;;;;;5025349;28;20314;-69
2023/05/24 10:34:39;;;;;;;7.03;3.50;;;14.50;99.90;;;;;;5028360;28;20214;-70
2023/05/24 10:37:05;;;;;;;13.03;4.17;;;14.50;99.90;;;;;;5025961;28;20309;-70
2023/05/24 10:39:32;;;;;;;7.70;3.13;;;14.50;99.90;;;;;;5027301;28;20803;-70
2023/05/24 10:42:01;;;;;;;7.40;3.70;;;14.80;99.90;;;;;;5027190;28;20290;-70
2023/05/24 10:44:29;;;;;;;9.83;3.17;;;15.00;99.90;;;;;;5029321;28;20191;-72
2023/05/24 10:47:13;;;;;;;6.87;3.10;;;15.00;99.90;;;;;;5041597;28;20272;-79
2023/05/24 10:49:47;;;;;;;8.27;3.43;;;14.50;99.90;;;;;;5032908;28;20190;-75
2023/05/24 10:52:13;;;;;;;7.73;3.13;;;14.50;99.90;;;;;;5034273;28;20203;-78
2023/05/24 10:54:38;;;;;;;7.83;3.33;;;14.50;99.90;;;;;;5039995;28;20687;-78
2023/05/24 10:57:06;;;;;;;6.97;3.07;;;14.40;99.90;;;;;;5042696;28;20198;-79
2023/05/24 10:59:37;;;;;;;5.93;3.07;;;14.50;99.90;;;;;;5035741;28;20561;-78
2023/05/24 11:02:08;;;;;;;7.17;3.60;;;14.50;99.90;;;;;;5033257;28;20967;-79
2023/05/24 11:04:42;;;;;;;7.20;3.30;;;14.40;99.90;;;;;;5032253;28;20201;-78
2023/05/24 11:07:08;;;;;;;5.17;3.40;;;14.50;99.90;;;;;;5024110;28;20544;-78
2023/05/24 11:09:45;;;;;;;9.57;2.87;;;14.30;99.90;;;;;;5027337;28;20259;-79
2023/05/24 11:12:16;;;;;;;7.23;2.93;;;14.40;99.90;;;;;;5026186;28;20213;-78
2023/05/24 11:14:48;;;;;;;5.93;2.77;;;14.40;99.90;;;;;;5023481;28;20202;-79
2023/05/24 11:17:13;;;;;;;8.53;3.00;;;14.50;99.90;;;;;;5030773;28;20199;-80
2023/05/24 11:19:46;;;;;;;6.30;2.87;;;14.50;99.90;;;;;;5032513;28;20227;-79
2023/05/24 11:22:13;;;;;;;8.97;2.90;;;14.50;99.90;;;;;;5022711;28;20749;-80
2023/05/24 11:24:40;;;;;;;6.70;2.57;;;14.50;99.90;;;;;;5022219;28;20281;-79
2023/05/24 11:27:06;;;;;;;6.57;2.67;;;14.60;99.30;;;;;;5025894;28;20602;-80
2023/05/24 11:29:38;;;;;;;9.43;3.07;;;14.60;99.90;;;;;;5031368;28;20195;-79
2023/05/24 11:32:04;;;;;;;8.53;3.17;;;14.80;99.90;;;;;;5032338;28;20230;-78
2023/05/24 11:34:31;;;;;;;7.83;2.90;;;14.90;99.70;;;;;;5033244;28;20230;-79
2023/05/24 11:37:01;;;;;;;7.87;3.10;;;15.20;99.80;;;;;;5025700;28;20235;-79
2023/05/24 11:39:34;;;;;;;6.83;2.77;;;15.70;99.90;;;;;;5014295;28;20972;-80
2023/05/24 11:42:02;;;;;;;7.40;2.83;;;16.20;97.70;;;;;;5011705;28;20215;-80
2023/05/24 11:44:30;;;;;;;5.37;2.40;;;17.10;95.90;;;;;;5012985;28;20197;-80
2023/05/24 11:47:00;;;;;;;8.40;2.80;;;17.30;94.70;;;;;;5027112;28;20199;-79
2023/05/24 11:49:26;;;;;;;8.93;2.63;;;17.00;95.80;;;;;;5027070;28;20658;-79
2023/05/24 11:51:56;;;;;;;6.87;2.90;;;16.50;96.60;;;;;;5026510;28;20204;-78
2023/05/24 11:54:23;;;;;;;7.40;3.30;;;16.40;96.30;;;;;;5026844;28;20256;-80
2023/05/24 11:56:48;;;;;;;9.17;3.67;;;16.10;97.20;;;;;;5026169;28;20206;-76
2023/05/24 11:59:16;;;;;;;6.57;3.30;;;16.00;97.60;;;;;;5034518;28;20210;-75
2023/05/24 12:01:42;;;;;;;8.83;3.40;;;15.70;98.40;;;;;;5035020;28;20223;-85
2023/05/24 12:04:08;;;;;;;9.53;3.43;;;15.80;98.00;;;;;;5033628;28;20269;-85
2023/05/24 12:06:40;;;;;;;3.80;2.37;;;15.70;97.50;;;;;;5021799;28;20196;-80
2023/05/24 12:09:07;;;;;;;7.00;3.07;;;15.70;97.60;;;;;;5024294;28;20292;-80
2023/05/24 12:11:40;;;;;;;6.00;2.47;;;15.60;98.00;;;;;;5026587;28;20214;-80
2023/05/24 12:14:13;;;;;;;8.57;3.30;;;15.60;99.00;;;;;;5025205;28;20230;-77
2023/05/24 12:16:41;;;;;;;8.17;3.83;;;15.80;98.40;;;;;;5021744;28;20620;-78
2023/05/24 12:19:06;;;;;;;9.50;4.10;;;15.80;98.60;;;;;;5028241;28;20551;-80
2023/05/24 12:21:33;;;;;;;7.30;2.70;;;15.80;97.90;;;;;;5033267;28;20208;-86
2023/05/24 12:24:26;;;;;;;7.17;2.67;;;15.80;97.80;;;;;;5035187;28;20238;-72
2023/05/24 12:26:56;;;;;;;6.53;3.73;;;15.60;97.10;;;;;;5031256;28;20207;-72
2023/05/24 12:29:21;;;;;;;8.57;2.93;;;16.00;96.50;;;;;;5034191;28;20648;-70
2023/05/24 12:31:48;;;;;;;7.30;2.63;;;16.30;96.00;;;;;;5027203;28;20199;-72
2023/05/24 12:34:20;;;;;;;11.70;5.30;;;16.40;96.00;;;;;;5033680;28;20628;-72
2023/05/24 12:36:48;;;;;;;10.10;3.17;;;16.50;95.40;;;;;;5031138;28;20719;-70
2023/05/24 12:39:34;;;;;;;8.07;2.80;;;16.50;95.20;;;;;;5027916;28;20203;-71
2023/05/24 12:42:01;;;;;;;8.37;4.13;;;16.30;95.70;;;;;;5028911;28;20214;-71